Time;durP1;ratioP1;P1;durP2;ratioP2;P2;SDS_P1;SDS_P2;PMS_P1;PMS_P2;Temp;Humidity;BMP_temperature;BMP_pressure;BME280_temperature;BME280_humidity;BME280_pressure;Samples;Min_cycle;Max_cycle;Signal;HPM_P1;HPM_P2
2022/06/18 00:00:42;;;;;;;;;;;;;;;11.61;98.19;98791.36;1779727;80;20286;-84
2022/06/18 00:03:09;;;;;;;;;;;;;;;11.67;97.52;98781.61;1765802;80;20166;-84
2022/06/18 00:05:35;;;;;;;;;;;;;;;11.66;98.47;98789.48;1779978;80;20223;-85
2022/06/18 00:08:01;;;;;;;;;;;;;;;11.68;98.41;98781.06;1765931;80;21039;-85
2022/06/18 00:10:27;;;;;;;;;;;;;;;11.67;98.22;98787.04;1779352;79;20848;-82
2022/06/18 00:15:38;;;;;;;;;;;;;;;11.58;99.16;98780.50;1765493;80;20207;-81
2022/06/18 00:18:08;;;;;;;;;;;;;;;11.59;97.89;98785.66;1779247;79;20430;-81
2022/06/18 00:20:34;;;;;;;;;;;;;;;11.58;98.56;98776.44;1779561;80;21084;-81
2022/06/18 00:23:00;;;;;;;;;;;;;;;11.58;96.74;98785.39;1779541;79;20289;-81
2022/06/18 00:25:34;;;;;;;;;;;;;;;11.54;98.31;98782.14;1780878;80;20136;-81
2022/06/18 00:28:00;;;;;;;;;;;;;;;11.53;97.25;98789.44;1779165;79;20214;-81
2022/06/18 00:30:28;;;;;;;;;;;;;;;11.53;96.71;98788.63;1779590;80;20168;-85
2022/06/18 00:32:53;;;;;;;;;;;;;;;11.53;95.75;98785.91;1765439;80;21090;-85
2022/06/18 00:35:19;;;;;;;;;;;;;;;11.53;96.29;98785.36;1779848;80;20203;-85
2022/06/18 00:37:45;;;;;;;;;;;;;;;11.54;95.22;98779.42;1764701;80;20217;-85
2022/06/18 00:40:20;;;;;;;;;;;;;;;11.53;95.25;98777.22;1780170;80;20210;-85
2022/06/18 00:42:45;;;;;;;;;;;;;;;11.51;95.46;98782.11;1779310;79;20287;-85
2022/06/18 00:45:17;;;;;;;;;;;;;;;11.52;97.84;98774.23;1779588;80;21990;-85
2022/06/18 00:48:00;;;;;;;;;;;;;;;11.51;97.50;98778.03;1778671;79;20432;-85
2022/06/18 00:50:53;;;;;;;;;;;;;;;11.46;98.09;98776.69;1758692;80;20488;-85
2022/06/18 00:53:25;;;;;;;;;;;;;;;11.40;98.61;98780.45;1752823;80;20523;-85
2022/06/18 00:56:04;;;;;;;;;;;;;;;11.34;97.51;98772.55;1773482;80;20245;-84
2022/06/18 00:58:33;;;;;;;;;;;;;;;11.22;99.13;98780.39;1779635;79;21012;-85
2022/06/18 01:00:59;;;;;;;;;;;;;;;11.18;99.38;98779.81;1779564;80;20175;-85
2022/06/18 01:03:27;;;;;;;;;;;;;;;11.13;99.34;98772.48;1762623;80;20182;-84
2022/06/18 01:05:55;;;;;;;;;;;;;;;11.12;97.68;98774.93;1769294;80;20160;-84
2022/06/18 01:08:21;;;;;;;;;;;;;;;11.06;97.76;98780.05;1779289;80;20524;-82
2022/06/18 01:10:50;;;;;;;;;;;;;;;11.04;99.49;98778.14;1749689;80;21091;-82
2022/06/18 01:13:19;;;;;;;;;;;;;;;11.04;99.53;98778.69;1776880;79;20177;-81
2022/06/18 01:15:45;;;;;;;;;;;;;;;11.02;98.48;98780.28;1778127;79;20502;-85
2022/06/18 01:18:11;;;;;;;;;;;;;;;10.95;97.17;98779.73;1767459;80;20284;-83
2022/06/18 01:20:40;;;;;;;;;;;;;;;10.90;97.85;98776.98;1779266;80;20199;-84
2022/06/18 01:23:16;;;;;;;;;;;;;;;10.89;97.81;98775.35;1778272;79;21039;-85
2022/06/18 01:25:41;;;;;;;;;;;;;;;10.82;99.10;98772.87;1779244;79;20239;-84
2022/06/18 01:28:09;;;;;;;;;;;;;;;10.82;99.83;98767.45;1765750;79;20189;-85
2022/06/18 01:30:37;;;;;;;;;;;;;;;10.82;100.00;98770.16;1780199;80;20129;-85
2022/06/18 01:33:06;;;;;;;;;;;;;;;10.78;99.27;98770.42;1779913;80;20235;-81
2022/06/18 01:35:31;;;;;;;;;;;;;;;10.78;96.91;98769.61;1754610;80;21019;-81
2022/06/18 01:37:57;;;;;;;;;;;;;;;10.71;96.91;98767.13;1774350;79;20265;-81
2022/06/18 01:40:26;;;;;;;;;;;;;;;10.67;97.21;98770.06;1779139;80;20265;-81
2022/06/18 01:42:52;;;;;;;;;;;;;;;10.61;96.17;98763.81;1779184;80;20617;-81
2022/06/18 01:45:24;;;;;;;;;;;;;;;10.57;98.38;98757.27;1758603;80;20252;-81
2022/06/18 01:48:02;;;;;;;;;;;;;;;10.55;98.63;98759.97;1757765;80;21994;-84
2022/06/18 01:50:36;;;;;;;;;;;;;;;10.50;100.00;98746.38;1755760;80;20205;-85
2022/06/18 01:53:06;;;;;;;;;;;;;;;10.48;100.00;98753.96;1777159;80;20259;-82
2022/06/18 01:55:35;;;;;;;;;;;;;;;10.47;98.61;98756.39;1779954;80;20307;-81
2022/06/18 01:58:08;;;;;;;;;;;;;;;10.42;100.00;98751.74;1778749;80;20290;-82
2022/06/18 02:00:33;;;;;;;;;;;;;;;10.42;100.00;98751.23;1779739;80;21019;-85
2022/06/18 02:02:59;;;;;;;;;;;;;;;10.41;100.00;98753.64;1779710;80;20249;-84
2022/06/18 02:05:25;;;;;;;;;;;;;;;10.41;100.00;98746.87;1779554;80;20269;-84
2022/06/18 02:07:51;;;;;;;;;;;;;;;10.40;100.00;98749.30;1777352;79;20170;-85
2022/06/18 02:10:20;;;;;;;;;;;;;;;10.38;99.89;98743.87;1779367;80;20183;-85
2022/06/18 02:12:45;;;;;;;;;;;;;;;10.31;100.00;98745.45;1777694;79;21163;-82
2022/06/18 02:15:13;;;;;;;;;;;;;;;10.27;100.00;98740.28;1768182;80;20186;-81
2022/06/18 02:17:39;;;;;;;;;;;;;;;10.25;100.00;98738.35;1778810;80;20250;-81
2022/06/18 02:20:11;;;;;;;;;;;;;;;10.22;100.00;98733.47;1778523;80;20182;-81
2022/06/18 02:22:45;;;;;;;;;;;;;;;10.20;100.00;98736.13;1779230;79;20215;-81
2022/06/18 02:25:12;;;;;;;;;;;;;;;10.16;100.00;98746.65;1779085;80;21132;-81
2022/06/18 02:27:39;;;;;;;;;;;;;;;10.13;100.00;98738.52;1778915;80;20223;-85
2022/06/18 02:30:06;;;;;;;;;;;;;;;10.09;99.29;98741.48;1754271;80;20195;-84
2022/06/18 02:32:44;;;;;;;;;;;;;;;10.11;99.36;98742.56;1779379;79;20161;-84
2022/06/18 02:35:14;;;;;;;;;;;;;;;10.10;100.00;98737.69;1760820;80;20136;-84
2022/06/18 02:37:39;;;;;;;;;;;;;;;10.13;100.00;98741.22;1769082;79;21061;-84
2022/06/18 02:40:14;;;;;;;;;;;;;;;10.10;100.00;98736.88;1762458;80;20196;-84
2022/06/18 02:42:40;;;;;;;;;;;;;;;10.10;100.00;98738.23;1767875;80;20191;-85
2022/06/18 02:45:07;;;;;;;;;;;;;;;10.06;99.78;98734.39;1779859;80;20183;-84
2022/06/18 02:47:33;;;;;;;;;;;;;;;10.05;99.75;98738.17;1750166;79;20217;-85
2022/06/18 02:50:04;;;;;;;;;;;;;;;10.03;99.01;98740.34;1778798;80;21005;-85
2022/06/18 02:52:36;;;;;;;;;;;;;;;9.99;98.94;98740.55;1779331;80;20827;-85
2022/06/18 02:55:13;;;;;;;;;;;;;;;9.97;100.00;98739.47;1779312;80;20472;-85
2022/06/18 02:57:39;;;;;;;;;;;;;;;9.96;99.19;98739.19;1750774;80;20687;-84
2022/06/18 03:00:08;;;;;;;;;;;;;;;9.91;100.00;98741.84;1780515;80;20211;-85
2022/06/18 03:02:34;;;;;;;;;;;;;;;9.90;100.00;98742.38;1779804;79;21186;-85
2022/06/18 03:05:00;;;;;;;;;;;;;;;9.89;100.00;98744.81;1765773;80;20163;-85
2022/06/18 03:07:26;;;;;;;;;;;;;;;9.92;100.00;98739.98;1777705;80;20250;-84
2022/06/18 03:12:35;;;;;;;;;;;;;;;9.96;100.00;98743.25;1779540;79;20144;-81
2022/06/18 03:15:01;;;;;;;;;;;;;;;9.97;99.43;98740.00;1779064;79;21758;-82
2022/06/18 03:17:27;;;;;;;;;;;;;;;9.93;99.38;98742.96;1778992;80;20226;-81
2022/06/18 03:19:55;;;;;;;;;;;;;;;9.91;99.63;98743.19;1779917;80;20191;-81
2022/06/18 03:22:21;;;;;;;;;;;;;;;9.95;98.67;98744.87;1766895;79;20597;-85
2022/06/18 03:24:47;;;;;;;;;;;;;;;9.96;100.00;98739.73;1780067;80;20269;-84
2022/06/18 03:27:13;;;;;;;;;;;;;;;9.99;100.00;98741.91;1779188;79;21144;-85
2022/06/18 03:29:39;;;;;;;;;;;;;;;10.03;100.00;98743.86;1779922;80;20148;-84
2022/06/18 03:32:06;;;;;;;;;;;;;;;10.10;100.00;98743.11;1779639;80;20208;-84
2022/06/18 03:34:32;;;;;;;;;;;;;;;10.17;100.00;98742.36;1751301;80;20156;-85
2022/06/18 03:36:58;;;;;;;;;;;;;;;10.26;99.90;98734.59;1779410;80;20207;-84
2022/06/18 03:39:24;;;;;;;;;;;;;;;10.34;99.55;98742.23;1778701;80;21061;-81
2022/06/18 03:41:49;;;;;;;;;;;;;;;10.40;99.45;98742.53;1765220;79;20234;-85
2022/06/18 03:44:15;;;;;;;;;;;;;;;10.50;99.36;98748.55;1779445;80;20178;-85
2022/06/18 03:46:43;;;;;;;;;;;;;;;10.61;98.67;98748.91;1776582;79;21638;-81
2022/06/18 03:49:09;;;;;;;;;;;;;;;10.68;98.34;98736.45;1767731;80;20140;-81
2022/06/18 03:51:35;;;;;;;;;;;;;;;10.84;98.02;98742.23;1780226;79;20991;-81
2022/06/18 03:54:01;;;;;;;;;;;;;;;10.94;98.25;98744.20;1779419;80;20190;-81
2022/06/18 03:56:29;;;;;;;;;;;;;;;11.04;97.82;98744.78;1768177;80;20216;-81
2022/06/18 03:58:55;;;;;;;;;;;;;;;11.20;97.22;98741.88;1751912;80;20164;-84
2022/06/18 04:01:24;;;;;;;;;;;;;;;11.33;97.11;98743.80;1778116;80;20282;-85
2022/06/18 04:03:49;;;;;;;;;;;;;;;11.50;95.98;98739.77;1779293;80;21166;-85
2022/06/18 04:06:15;;;;;;;;;;;;;;;11.53;95.88;98739.77;1778616;80;20266;-86
2022/06/18 04:08:43;;;;;;;;;;;;;;;11.56;96.07;98736.53;1764804;79;20238;-85
2022/06/18 04:11:10;;;;;;;;;;;;;;;11.73;95.70;98738.47;1748795;80;20195;-85
2022/06/18 04:13:36;;;;;;;;;;;;;;;11.86;95.85;98736.59;1773811;79;20180;-86
2022/06/18 04:16:01;;;;;;;;;;;;;;;12.02;95.52;98736.61;1742294;81;21077;-86
2022/06/18 04:18:27;;;;;;;;;;;;;;;12.13;94.71;98735.51;1772073;79;20254;-81
2022/06/18 04:20:53;;;;;;;;;;;;;;;12.25;94.67;98733.34;1779664;80;20206;-81
2022/06/18 04:23:19;;;;;;;;;;;;;;;12.38;94.24;98736.03;1779105;79;20223;-81
2022/06/18 04:25:45;;;;;;;;;;;;;;;12.45;94.15;98732.49;1780009;80;20247;-81
2022/06/18 04:28:12;;;;;;;;;;;;;;;12.62;93.79;98731.64;1752601;80;21041;-81
2022/06/18 04:30:38;;;;;;;;;;;;;;;12.75;93.07;98733.53;1765422;80;20174;-82
2022/06/18 04:33:04;;;;;;;;;;;;;;;12.91;92.79;98730.48;1778917;79;20277;-81
2022/06/18 04:35:30;;;;;;;;;;;;;;;13.01;92.57;98734.27;1779784;80;20196;-81
2022/06/18 04:37:56;;;;;;;;;;;;;;;13.07;91.80;98738.02;1779158;80;20269;-81
2022/06/18 04:40:26;;;;;;;;;;;;;;;13.23;90.94;98742.89;1756540;80;21771;-81
2022/06/18 04:42:51;;;;;;;;;;;;;;;13.24;90.60;98739.06;1772888;79;20231;-81
2022/06/18 04:45:17;;;;;;;;;;;;;;;13.39;90.04;98734.91;1779814;80;20198;-85
2022/06/18 04:47:43;;;;;;;;;;;;;;;13.46;89.72;98734.06;1765968;80;20211;-85
2022/06/18 04:50:12;;;;;;;;;;;;;;;13.60;89.10;98734.27;1755402;80;20207;-85
2022/06/18 04:52:38;;;;;;;;;;;;;;;13.68;88.68;98736.39;1761541;80;21045;-85
2022/06/18 04:55:05;;;;;;;;;;;;;;;13.78;88.29;98737.68;1737619;80;20212;-85
2022/06/18 04:57:30;;;;;;;;;;;;;;;13.90;88.30;98737.87;1766257;80;20255;-85
2022/06/18 04:59:56;;;;;;;;;;;;;;;14.00;88.83;98737.23;1780054;80;20151;-85
2022/06/18 05:02:24;;;;;;;;;;;;;;;14.28;87.85;98734.84;1766283;80;20253;-85
2022/06/18 05:04:49;;;;;;;;;;;;;;;14.37;86.70;98731.77;1779825;80;21701;-85
2022/06/18 05:07:15;;;;;;;;;;;;;;;14.50;86.53;98730.30;1779076;79;20218;-85
2022/06/18 05:09:41;;;;;;;;;;;;;;;14.65;87.23;98730.95;1750747;80;20262;-85
2022/06/18 05:12:07;;;;;;;;;;;;;;;14.84;85.58;98732.38;1766077;80;20239;-82
2022/06/18 05:14:33;;;;;;;;;;;;;;;14.96;84.49;98727.91;1778761;79;20208;-82
2022/06/18 05:16:59;;;;;;;;;;;;;;;15.05;85.40;98722.61;1778156;79;21731;-82
2022/06/18 05:19:27;;;;;;;;;;;;;;;15.29;84.11;98722.00;1778683;79;20225;-82
2022/06/18 05:21:54;;;;;;;;;;;;;;;15.43;83.65;98724.83;1780304;79;20357;-85
2022/06/18 05:24:19;;;;;;;;;;;;;;;15.53;82.30;98728.22;1779361;80;20140;-86
2022/06/18 05:26:47;;;;;;;;;;;;;;;15.62;82.47;98726.23;1779543;79;20183;-85
2022/06/18 05:29:13;;;;;;;;;;;;;;;15.76;81.49;98723.02;1748561;80;21101;-85
2022/06/18 05:31:38;;;;;;;;;;;;;;;15.85;81.49;98724.53;1715895;80;20177;-85
2022/06/18 05:34:04;;;;;;;;;;;;;;;15.94;81.46;98727.66;1756289;79;20213;-86
2022/06/18 05:36:30;;;;;;;;;;;;;;;16.07;81.37;98725.55;1779287;79;20616;-85
2022/06/18 05:38:57;;;;;;;;;;;;;;;16.22;80.22;98731.84;1753326;80;20307;-86
2022/06/18 05:41:23;;;;;;;;;;;;;;;16.31;80.65;98731.42;1777553;80;21200;-82
2022/06/18 05:43:49;;;;;;;;;;;;;;;16.49;79.49;98730.58;1779719;80;20234;-82
2022/06/18 05:46:15;;;;;;;;;;;;;;;16.61;79.65;98726.78;1779179;79;20172;-82
2022/06/18 05:48:41;;;;;;;;;;;;;;;16.74;78.95;98731.22;1779170;80;20214;-82
2022/06/18 05:51:07;;;;;;;;;;;;;;;16.85;78.66;98723.09;1780015;80;20251;-82
2022/06/18 05:53:33;;;;;;;;;;;;;;;17.02;78.50;98723.30;1779857;79;21002;-82
2022/06/18 05:55:59;;;;;;;;;;;;;;;17.15;78.47;98714.80;1779582;80;20194;-81
2022/06/18 05:58:24;;;;;;;;;;;;;;;17.32;77.96;98710.88;1779282;79;20210;-82
2022/06/18 06:00:51;;;;;;;;;;;;;;;17.57;77.97;98715.55;1780161;80;20143;-82
2022/06/18 06:03:16;;;;;;;;;;;;;;;17.69;77.38;98704.31;1779819;80;20294;-82
2022/06/18 06:05:42;;;;;;;;;;;;;;;17.92;76.97;98702.97;1751766;80;21043;-82
2022/06/18 06:08:13;;;;;;;;;;;;;;;18.02;75.53;98699.41;1750369;79;20769;-82
2022/06/18 06:13:22;;;;;;;;;;;;;;;18.28;75.14;98698.20;1765260;79;20184;-82
2022/06/18 06:15:48;;;;;;;;;;;;;;;18.47;72.72;98693.09;1778607;79;20790;-82
2022/06/18 06:18:15;;;;;;;;;;;;;;;18.57;72.32;98692.81;1764737;79;21708;-82
2022/06/18 06:20:43;;;;;;;;;;;;;;;18.74;72.73;98686.62;1773492;80;20246;-83
2022/06/18 06:23:09;;;;;;;;;;;;;;;18.88;72.22;98692.26;1765310;80;20195;-85
2022/06/18 06:25:35;;;;;;;;;;;;;;;19.06;71.38;98692.31;1778854;80;20309;-86
2022/06/18 06:28:01;;;;;;;;;;;;;;;19.25;70.65;98684.59;1768077;79;20206;-83
2022/06/18 06:30:27;;;;;;;;;;;;;;;19.38;69.89;98687.75;1760573;80;21059;-83
2022/06/18 06:32:53;;;;;;;;;;;;;;;19.56;68.70;98682.27;1766083;80;20282;-83
2022/06/18 06:35:19;;;;;;;;;;;;;;;19.68;68.69;98684.66;1734453;82;20182;-83
2022/06/18 06:37:45;;;;;;;;;;;;;;;19.78;68.32;98678.03;1764890;79;20159;-83
2022/06/18 06:40:13;;;;;;;;;;;;;;;19.88;66.95;98675.52;1737428;80;20158;-82
2022/06/18 06:42:49;;;;;;;;;;;;;;;19.94;68.56;98669.53;1769281;80;21876;-82
2022/06/18 06:45:17;;;;;;;;;;;;;;;20.24;68.96;98672.38;1759189;80;20171;-83
2022/06/18 06:47:44;;;;;;;;;;;;;;;20.48;68.88;98671.29;1769990;79;20168;-83
2022/06/18 06:50:10;;;;;;;;;;;;;;;20.78;68.49;98668.60;1778805;79;20746;-83
2022/06/18 06:52:36;;;;;;;;;;;;;;;20.91;66.36;98668.13;1760739;79;20223;-83
2022/06/18 06:57:47;;;;;;;;;;;;;;;21.43;66.62;98665.88;1772196;79;20147;-83
2022/06/18 07:00:14;;;;;;;;;;;;;;;21.65;64.38;98661.99;1756709;79;20588;-83
2022/06/18 07:02:39;;;;;;;;;;;;;;;21.86;65.08;98662.77;1769744;79;20525;-83
2022/06/18 07:05:06;;;;;;;;;;;;;;;22.02;62.00;98657.43;1751299;80;20301;-83
2022/06/18 07:07:32;;;;;;;;;;;;;;;22.13;60.88;98657.83;1763650;80;21225;-83
2022/06/18 07:09:58;;;;;;;;;;;;;;;22.30;60.64;98660.41;1778975;80;20215;-83
2022/06/18 07:12:23;;;;;;;;;;;;;;;22.42;61.51;98653.55;1765720;80;20239;-83
2022/06/18 07:14:49;;;;;;;;;;;;;;;22.62;60.71;98653.80;1765947;79;20186;-83
2022/06/18 07:17:19;;;;;;;;;;;;;;;22.80;59.55;98651.85;1752923;80;20166;-83
2022/06/18 07:19:44;;;;;;;;;;;;;;;22.92;62.76;98653.05;1779036;80;21110;-83
2022/06/18 07:22:10;;;;;;;;;;;;;;;23.01;62.42;98650.98;1779205;80;21217;-83
2022/06/18 07:24:37;;;;;;;;;;;;;;;23.13;58.34;98640.48;1779612;80;20234;-83
2022/06/18 07:27:04;;;;;;;;;;;;;;;23.38;60.77;98640.66;1779196;80;20736;-83
2022/06/18 07:29:29;;;;;;;;;;;;;;;23.45;58.96;98641.46;1779309;80;20180;-83
2022/06/18 07:32:08;;;;;;;;;;;;;;;23.63;56.00;98642.81;1773751;79;21076;-87
2022/06/18 07:34:34;;;;;;;;;;;;;;;23.73;54.88;98644.28;1774076;80;20164;-87
2022/06/18 07:36:59;;;;;;;;;;;;;;;23.75;55.12;98635.84;1778887;78;20694;-86
2022/06/18 07:39:25;;;;;;;;;;;;;;;23.88;52.48;98642.16;1779224;79;20624;-88
2022/06/18 07:41:55;;;;;;;;;;;;;;;23.96;54.75;98644.55;1778682;79;20199;-86
2022/06/18 07:44:24;;;;;;;;;;;;;;;24.22;53.58;98644.87;1779603;80;21186;-88
2022/06/18 07:46:57;;;;;;;;;;;;;;;24.45;50.61;98641.77;1780006;79;20136;-87
2022/06/18 07:49:21;;;;;;;;;;;;;;;24.75;50.14;98644.87;1778614;80;20192;-83
2022/06/18 07:51:47;;;;;;;;;;;;;;;24.95;44.31;98643.00;1762920;80;20226;-83
2022/06/18 07:54:13;;;;;;;;;;;;;;;25.00;42.50;98644.09;1768700;80;20791;-83
2022/06/18 07:56:39;;;;;;;;;;;;;;;25.12;41.24;98648.75;1778287;80;21035;-83
2022/06/18 07:59:05;;;;;;;;;;;;;;;25.37;38.20;98649.90;1750901;80;20233;-83
2022/06/18 08:01:31;;;;;;;;;;;;;;;25.88;38.71;98649.23;1780016;79;20210;-83
2022/06/18 08:03:56;;;;;;;;;;;;;;;26.31;40.63;98650.86;1779656;80;20382;-84
2022/06/18 08:06:22;;;;;;;;;;;;;;;26.70;37.03;98645.23;1778520;79;20373;-84
2022/06/18 08:08:48;;;;;;;;;;;;;;;27.05;38.87;98647.02;1779568;80;21876;-84
2022/06/18 08:11:15;;;;;;;;;;;;;;;27.37;36.72;98644.71;1779558;80;20218;-84
2022/06/18 08:13:40;;;;;;;;;;;;;;;27.82;35.08;98643.14;1779835;79;20239;-84
2022/06/18 08:16:07;;;;;;;;;;;;;;;28.35;36.44;98650.52;1715002;82;20237;-84
2022/06/18 08:18:32;;;;;;;;;;;;;;;28.84;37.65;98645.20;1779518;79;20159;-84
2022/06/18 08:21:01;;;;;;;;;;;;;;;29.14;36.77;98659.82;1780040;80;21741;-84
2022/06/18 08:23:27;;;;;;;;;;;;;;;29.39;36.44;98651.58;1764840;79;20195;-84
2022/06/18 08:25:53;;;;;;;;;;;;;;;29.71;31.49;98658.77;1779185;80;20242;-84
2022/06/18 08:28:18;;;;;;;;;;;;;;;29.56;32.66;98652.91;1775640;79;20147;-84
2022/06/18 08:30:44;;;;;;;;;;;;;;;29.17;31.23;98654.05;1779665;80;20313;-84
2022/06/18 08:33:10;;;;;;;;;;;;;;;29.51;33.55;98654.69;1777964;79;21122;-85
2022/06/18 08:35:37;;;;;;;;;;;;;;;29.34;33.25;98651.97;1756377;80;20233;-84
2022/06/18 08:38:05;;;;;;;;;;;;;;;29.48;34.12;98648.44;1739395;80;20459;-84
2022/06/18 08:40:57;;;;;;;;;;;;;;;29.15;31.86;98642.48;1772585;79;21092;-84
2022/06/18 08:43:36;;;;;;;;;;;;;;;30.43;35.93;98632.48;1771410;80;20478;-88
2022/06/18 08:46:28;;;;;;;;;;;;;;;30.43;31.91;98633.29;1775271;79;21211;-88
2022/06/18 08:49:03;;;;;;;;;;;;;;;30.62;28.11;98626.52;1779209;80;20239;-88
2022/06/18 08:52:06;;;;;;;;;;;;;;;31.60;29.01;98619.80;1767507;80;20333;-88
2022/06/18 08:54:47;;;;;;;;;;;;;;;31.97;27.76;98620.69;1743450;81;20174;-88
2022/06/18 08:57:23;;;;;;;;;;;;;;;32.16;25.91;98612.37;1768068;79;20501;-89
2022/06/18 09:00:04;;;;;;;;;;;;;;;31.91;24.22;98602.70;1779357;80;21012;-89
2022/06/18 09:02:48;;;;;;;;;;;;;;;31.89;26.70;98606.52;1779739;80;20201;-85
2022/06/18 09:05:45;;;;;;;;;;;;;;;32.13;25.91;98604.80;1779600;80;20637;-84
2022/06/18 09:08:30;;;;;;;;;;;;;;;32.32;27.46;98597.89;1778835;79;20715;-84
2022/06/18 09:11:06;;;;;;;;;;;;;;;32.73;25.54;98590.95;1736218;80;21213;-84
2022/06/18 09:13:38;;;;;;;;;;;;;;;33.02;26.06;98589.30;1764289;79;21274;-85
2022/06/18 09:16:07;;;;;;;;;;;;;;;34.07;22.67;98589.88;1778589;79;20195;-85
2022/06/18 09:18:38;;;;;;;;;;;;;;;33.05;22.80;98589.25;1778732;79;20574;-85
2022/06/18 09:21:09;;;;;;;;;;;;;;;32.61;25.32;98583.03;1779592;80;20624;-84
2022/06/18 09:23:39;;;;;;;;;;;;;;;32.72;25.43;98584.33;1779323;79;20231;-84
2022/06/18 09:26:08;;;;;;;;;;;;;;;33.34;23.03;98585.55;1773086;80;21160;-84
2022/06/18 09:28:36;;;;;;;;;;;;;;;33.36;22.30;98576.13;1759811;80;20151;-88
2022/06/18 09:31:14;;;;;;;;;;;;;;;33.58;22.97;98578.66;1740813;80;20189;-88
2022/06/18 09:33:55;;;;;;;;;;;;;;;33.79;24.44;98577.61;1764600;80;20247;-85
2022/06/18 09:36:24;;;;;;;;;;;;;;;34.24;22.32;98571.16;1779365;80;20561;-85
2022/06/18 09:38:56;;;;;;;;;;;;;;;34.79;23.25;98572.71;1766010;80;21933;-85
2022/06/18 09:41:26;;;;;;;;;;;;;;;34.62;21.76;98566.16;1755032;80;20154;-85
2022/06/18 09:44:09;;;;;;;;;;;;;;;35.39;19.88;98570.02;1776805;79;20152;-85
2022/06/18 09:46:41;;;;;;;;;;;;;;;34.87;21.05;98566.31;1778580;79;20318;-85
2022/06/18 09:49:07;;;;;;;;;;;;;;;35.10;21.27;98557.09;1743330;80;20191;-85
2022/06/18 09:51:37;;;;;;;;;;;;;;;35.45;20.14;98555.61;1779872;79;21125;-85
2022/06/18 09:54:05;;;;;;;;;;;;;;;35.54;19.79;98545.34;1779966;79;20842;-86
2022/06/18 09:56:35;;;;;;;;;;;;;;;35.28;19.94;98550.48;1767620;80;20160;-86
2022/06/18 09:59:03;;;;;;;;;;;;;;;34.48;20.08;98546.70;1776984;80;20160;-86
2022/06/18 10:01:33;;;;;;;;;;;;;;;35.51;21.92;98540.59;1779199;80;20195;-86
2022/06/18 10:06:52;;;;;;;;;;;;;;;37.50;20.33;98546.79;1763907;80;20144;-86
2022/06/18 10:09:40;;;;;;;;;;;;;;;37.50;19.42;98545.37;1771196;78;20140;-86
2022/06/18 10:12:19;;;;;;;;;;;;;;;37.53;15.90;98543.88;1778498;79;20184;-86
2022/06/18 10:14:45;;;;;;;;;;;;;;;34.92;17.48;98541.94;1776215;79;20192;-86
2022/06/18 10:17:24;;;;;;;;;;;;;;;33.34;19.51;98533.61;1765435;79;21174;-86
2022/06/18 10:20:14;;;;;;;;;;;;;;;32.94;21.13;98526.05;1779553;80;21194;-86
2022/06/18 10:22:43;;;;;;;;;;;;;;;32.25;23.76;98529.22;1768051;79;20227;-85
2022/06/18 10:25:29;;;;;;;;;;;;;;;31.20;23.64;98518.16;1771301;80;20645;-85
2022/06/18 10:28:15;;;;;;;;;;;;;;;32.42;22.34;98520.50;1746996;80;20221;-85
2022/06/18 10:30:54;;;;;;;;;;;;;;;33.36;21.63;98517.73;1736412;81;21195;-86
2022/06/18 10:33:30;;;;;;;;;;;;;;;35.06;21.16;98507.89;1755712;79;20270;-86
2022/06/18 10:36:15;;;;;;;;;;;;;;;35.93;20.61;98507.08;1749034;81;20236;-87
2022/06/18 10:38:50;;;;;;;;;;;;;;;37.24;20.08;98506.34;1756842;79;20251;-89
2022/06/18 10:41:44;;;;;;;;;;;;;;;36.24;18.95;98502.54;1750328;80;20208;-89
2022/06/18 10:44:13;;;;;;;;;;;;;;;35.75;19.18;98501.03;1727229;82;21184;-89
2022/06/18 10:46:39;;;;;;;;;;;;;;;34.15;20.84;98489.36;1732458;81;20178;-89
2022/06/18 10:49:05;;;;;;;;;;;;;;;33.08;22.36;98494.41;1743510;80;20207;-89
2022/06/18 10:51:43;;;;;;;;;;;;;;;31.97;23.89;98502.20;1761636;80;20162;-89
2022/06/18 10:54:09;;;;;;;;;;;;;;;31.21;25.64;98495.39;1767858;80;20273;-89
2022/06/18 10:56:50;;;;;;;;;;;;;;;31.41;25.21;98485.89;1777642;79;21101;-88
2022/06/18 10:59:16;;;;;;;;;;;;;;;30.84;26.39;98487.46;1775870;80;20219;-89
2022/06/18 11:01:48;;;;;;;;;;;;;;;30.59;26.25;98488.31;1728323;79;20226;-85
2022/06/18 11:04:20;;;;;;;;;;;;;;;30.69;26.06;98490.12;1749649;80;20454;-86
2022/06/18 11:06:46;;;;;;;;;;;;;;;32.15;23.44;98492.27;1765702;80;20253;-85
2022/06/18 11:09:21;;;;;;;;;;;;;;;32.41;22.65;98483.25;1748778;80;21039;-86
2022/06/18 11:11:53;;;;;;;;;;;;;;;32.83;22.74;98479.84;1749738;79;20226;-86
2022/06/18 11:14:19;;;;;;;;;;;;;;;34.06;23.31;98469.43;1766609;80;20247;-85
2022/06/18 11:16:46;;;;;;;;;;;;;;;34.52;22.11;98476.30;1752387;79;20715;-86
2022/06/18 11:19:21;;;;;;;;;;;;;;;35.47;20.25;98475.09;1779632;80;20529;-86
2022/06/18 11:21:47;;;;;;;;;;;;;;;36.58;20.38;98465.42;1778629;80;21774;-86
2022/06/18 11:24:22;;;;;;;;;;;;;;;37.39;19.67;98468.62;1752791;80;20246;-86
2022/06/18 11:26:55;;;;;;;;;;;;;;;38.49;17.99;98459.45;1749747;79;20266;-86
2022/06/18 11:29:30;;;;;;;;;;;;;;;38.92;17.15;98457.33;1770925;79;20207;-86
2022/06/18 11:31:57;;;;;;;;;;;;;;;38.20;17.79;98456.78;1779073;80;20187;-86
2022/06/18 11:34:26;;;;;;;;;;;;;;;37.92;17.37;98456.29;1779564;80;21104;-86
2022/06/18 11:36:53;;;;;;;;;;;;;;;39.33;18.51;98456.84;1761108;80;20536;-86
2022/06/18 11:39:34;;;;;;;;;;;;;;;40.19;15.91;98455.67;1738133;80;20197;-86
2022/06/18 11:42:19;;;;;;;;;;;;;;;38.98;16.79;98449.03;1756750;79;20270;-86
2022/06/18 11:44:48;;;;;;;;;;;;;;;39.76;17.25;98447.48;1776849;80;20164;-86
2022/06/18 11:47:23;;;;;;;;;;;;;;;40.53;16.15;98449.61;1770337;80;21140;-86
2022/06/18 11:50:04;;;;;;;;;;;;;;;40.28;16.19;98444.34;1766539;80;20143;-86
2022/06/18 11:52:39;;;;;;;;;;;;;;;40.65;17.01;98442.19;1775938;80;20274;-86
2022/06/18 11:55:26;;;;;;;;;;;;;;;40.67;16.78;98429.72;1762039;79;20660;-86
2022/06/18 11:57:58;;;;;;;;;;;;;;;40.89;16.30;98438.11;1759681;80;20509;-86
2022/06/18 12:00:27;;;;;;;;;;;;;;;40.18;16.01;98433.45;1762818;80;22095;-87
2022/06/18 12:03:03;;;;;;;;;;;;;;;40.29;15.97;98423.84;1757010;79;20158;-86
2022/06/18 12:05:34;;;;;;;;;;;;;;;41.24;17.00;98427.16;1762104;80;20427;-86
2022/06/18 12:08:01;;;;;;;;;;;;;;;40.79;15.81;98426.73;1779021;79;20672;-86
2022/06/18 12:10:51;;;;;;;;;;;;;;;41.12;14.99;98422.62;1778941;80;20187;-86
2022/06/18 12:13:38;;;;;;;;;;;;;;;41.27;13.66;98421.30;1779201;79;20722;-86
2022/06/18 12:16:24;;;;;;;;;;;;;;;41.84;15.23;98417.83;1746630;80;20236;-86
2022/06/18 12:18:54;;;;;;;;;;;;;;;40.97;15.55;98417.42;1778438;80;20251;-90
2022/06/18 12:21:32;;;;;;;;;;;;;;;41.23;16.15;98416.42;1748416;80;20330;-89
2022/06/18 12:24:17;;;;;;;;;;;;;;;41.26;15.76;98408.98;1752331;80;20214;-89
2022/06/18 12:26:58;;;;;;;;;;;;;;;41.02;16.27;98404.62;1768731;79;21292;-89
2022/06/18 12:29:40;;;;;;;;;;;;;;;40.93;14.18;98393.27;1777694;80;20251;-89
2022/06/18 12:32:12;;;;;;;;;;;;;;;41.09;13.90;98395.14;1769246;79;20370;-86
2022/06/18 12:34:57;;;;;;;;;;;;;;;40.32;15.17;98391.04;1776429;79;20219;-86
2022/06/18 12:37:36;;;;;;;;;;;;;;;40.51;14.94;98386.84;1771454;79;20267;-86
2022/06/18 12:40:08;;;;;;;;;;;;;;;40.60;14.70;98381.16;1772209;79;21024;-87
2022/06/18 12:42:40;;;;;;;;;;;;;;;40.99;16.81;98382.22;1777906;79;20271;-86
2022/06/18 12:45:25;;;;;;;;;;;;;;;40.78;15.19;98385.39;1777271;79;20207;-86
2022/06/18 12:48:03;;;;;;;;;;;;;;;40.68;14.11;98387.28;1777585;79;20677;-87
2022/06/18 12:50:36;;;;;;;;;;;;;;;40.58;15.18;98377.98;1736353;80;20143;-87
2022/06/18 12:53:11;;;;;;;;;;;;;;;40.52;16.05;98378.48;1767907;79;21282;-86
2022/06/18 12:55:53;;;;;;;;;;;;;;;40.53;15.91;98378.00;1737572;80;20410;-86
2022/06/18 12:58:22;;;;;;;;;;;;;;;40.61;13.44;98380.53;1763883;79;20629;-87
2022/06/18 13:00:53;;;;;;;;;;;;;;;39.26;15.35;98369.91;1777985;80;20822;-87
2022/06/18 13:03:26;;;;;;;;;;;;;;;39.60;13.68;98371.80;1779047;79;20192;-86
2022/06/18 13:06:11;;;;;;;;;;;;;;;38.85;15.92;98372.63;1756928;80;21258;-86
2022/06/18 13:09:02;;;;;;;;;;;;;;;39.23;16.32;98364.55;1758751;80;20164;-87
2022/06/18 13:11:41;;;;;;;;;;;;;;;39.68;15.90;98356.87;1777552;79;20172;-90
2022/06/18 13:14:22;;;;;;;;;;;;;;;40.13;15.35;98356.82;1766699;79;20591;-88